sensor_id;sensor_type;location;lat;lon;timestamp;pressure;altitude;pressure_sealevel;temperature;humidity
80410;BME280;69746;45.596;10.154;2023-05-10T00:01:32;99219.53;;;19.49;60.38
80410;BME280;69746;45.596;10.154;2023-05-10T00:03:58;99217.88;;;19.48;61.23
80410;BME280;69746;45.596;10.154;2023-05-10T00:06:24;99213.69;;;19.50;61.43
80410;BME280;69746;45.596;10.154;2023-05-10T00:08:50;99209.28;;;19.49;61.52
80410;BME280;69746;45.596;10.154;2023-05-10T00:11:16;99221.97;;;19.50;60.61
80410;BME280;69746;45.596;10.154;2023-05-10T00:13:42;99212.84;;;19.50;59.71
80410;BME280;69746;45.596;10.154;2023-05-10T00:16:08;99202.94;;;19.49;60.67
80410;BME280;69746;45.596;10.154;2023-05-10T00:18:34;99204.88;;;19.48;60.96
80410;BME280;69746;45.596;10.154;2023-05-10T00:21:00;99203.53;;;19.45;60.01
80410;BME280;69746;45.596;10.154;2023-05-10T00:23:26;99199.22;;;19.39;60.14
80410;BME280;69746;45.596;10.154;2023-05-10T00:25:52;99205.56;;;19.40;61.23
80410;BME280;69746;45.596;10.154;2023-05-10T00:28:18;99195.13;;;19.37;60.46
80410;BME280;69746;45.596;10.154;2023-05-10T00:30:44;99188.91;;;19.31;59.35
80410;BME280;69746;45.596;10.154;2023-05-10T00:33:10;99184.19;;;19.32;60.06
80410;BME280;69746;45.596;10.154;2023-05-10T00:35:37;99179.28;;;19.29;60.83
80410;BME280;69746;45.596;10.154;2023-05-10T00:38:03;99177.66;;;19.28;61.24
80410;BME280;69746;45.596;10.154;2023-05-10T00:40:29;99180.41;;;19.28;60.82
80410;BME280;69746;45.596;10.154;2023-05-10T00:42:57;99180.09;;;19.29;61.34
80410;BME280;69746;45.596;10.154;2023-05-10T00:45:24;99167.41;;;19.28;60.70
80410;BME280;69746;45.596;10.154;2023-05-10T00:47:51;99168.00;;;19.25;59.73
80410;BME280;69746;45.596;10.154;2023-05-10T00:50:23;99164.22;;;19.21;58.73
80410;BME280;69746;45.596;10.154;2023-05-10T00:52:49;99147.13;;;19.19;59.64
80410;BME280;69746;45.596;10.154;2023-05-10T00:55:15;99146.91;;;19.15;58.88
80410;BME280;69746;45.596;10.154;2023-05-10T00:57:42;99142.28;;;19.11;58.46
80410;BME280;69746;45.596;10.154;2023-05-10T01:00:09;99142.09;;;19.07;57.95
80410;BME280;69746;45.596;10.154;2023-05-10T01:02:36;99144.97;;;19.02;55.57
80410;BME280;69746;45.596;10.154;2023-05-10T01:05:03;99132.03;;;18.98;55.53
80410;BME280;69746;45.596;10.154;2023-05-10T01:07:29;99129.38;;;18.93;56.92
80410;BME280;69746;45.596;10.154;2023-05-10T01:09:56;99131.94;;;18.89;56.20
80410;BME280;69746;45.596;10.154;2023-05-10T01:12:22;99131.13;;;18.89;56.37
80410;BME280;69746;45.596;10.154;2023-05-10T01:14:48;99129.28;;;18.84;56.85
80410;BME280;69746;45.596;10.154;2023-05-10T01:17:15;99119.84;;;18.85;57.33
80410;BME280;69746;45.596;10.154;2023-05-10T01:19:42;99121.50;;;18.86;58.19
80410;BME280;69746;45.596;10.154;2023-05-10T01:28:05;99119.97;;;18.80;58.01
80410;BME280;69746;45.596;10.154;2023-05-10T01:30:58;99128.03;;;18.76;55.95
80410;BME280;69746;45.596;10.154;2023-05-10T01:33:47;99117.00;;;18.76;57.99
80410;BME280;69746;45.596;10.154;2023-05-10T01:39:29;99114.00;;;18.73;57.45
80410;BME280;69746;45.596;10.154;2023-05-10T01:42:08;99108.28;;;18.69;57.17
80410;BME280;69746;45.596;10.154;2023-05-10T01:44:55;99117.69;;;18.68;57.54
80410;BME280;69746;45.596;10.154;2023-05-10T01:47:37;99123.53;;;18.67;57.90
80410;BME280;69746;45.596;10.154;2023-05-10T01:50:08;99113.28;;;18.67;59.21
80410;BME280;69746;45.596;10.154;2023-05-10T01:52:41;99113.81;;;18.69;59.69
80410;BME280;69746;45.596;10.154;2023-05-10T01:55:15;99115.75;;;18.69;59.45
80410;BME280;69746;45.596;10.154;2023-05-10T01:57:44;99119.84;;;18.71;59.28
80410;BME280;69746;45.596;10.154;2023-05-10T02:00:11;99121.97;;;18.74;59.40
80410;BME280;69746;45.596;10.154;2023-05-10T02:02:40;99120.66;;;18.72;59.85
80410;BME280;69746;45.596;10.154;2023-05-10T02:05:13;99123.09;;;18.73;59.21
80410;BME280;69746;45.596;10.154;2023-05-10T02:07:41;99131.41;;;18.73;59.76
80410;BME280;69746;45.596;10.154;2023-05-10T02:10:09;99140.31;;;18.70;59.77
80410;BME280;69746;45.596;10.154;2023-05-10T02:12:39;99125.97;;;18.68;59.29
80410;BME280;69746;45.596;10.154;2023-05-10T02:15:07;99132.81;;;18.71;59.57
80410;BME280;69746;45.596;10.154;2023-05-10T02:17:34;99127.31;;;18.71;58.96
80410;BME280;69746;45.596;10.154;2023-05-10T02:20:03;99137.22;;;18.72;60.13
80410;BME280;69746;45.596;10.154;2023-05-10T02:22:31;99133.34;;;18.73;58.48
80410;BME280;69746;45.596;10.154;2023-05-10T02:25:00;99136.09;;;18.73;59.77
80410;BME280;69746;45.596;10.154;2023-05-10T02:27:27;99131.69;;;18.72;59.48
80410;BME280;69746;45.596;10.154;2023-05-10T02:29:56;99141.63;;;18.73;60.44
80410;BME280;69746;45.596;10.154;2023-05-10T02:32:25;99140.22;;;18.75;60.74
80410;BME280;69746;45.596;10.154;2023-05-10T02:34:52;99129.16;;;18.75;60.57
80410;BME280;69746;45.596;10.154;2023-05-10T02:37:21;99137.66;;;18.79;60.61
80410;BME280;69746;45.596;10.154;2023-05-10T02:39:49;99129.56;;;18.82;60.54
80410;BME280;69746;45.596;10.154;2023-05-10T02:42:18;99130.69;;;18.81;59.91
80410;BME280;69746;45.596;10.154;2023-05-10T02:44:48;99126.91;;;18.77;59.73
80410;BME280;69746;45.596;10.154;2023-05-10T02:47:15;99132.44;;;18.77;60.79
80410;BME280;69746;45.596;10.154;2023-05-10T02:49:42;99119.75;;;18.76;60.88
80410;BME280;69746;45.596;10.154;2023-05-10T02:52:08;99114.50;;;18.75;60.18
80410;BME280;69746;45.596;10.154;2023-05-10T02:54:43;99120.34;;;18.73;59.42
80410;BME280;69746;45.596;10.154;2023-05-10T02:57:16;99125.56;;;18.75;60.65
80410;BME280;69746;45.596;10.154;2023-05-10T02:59:45;99110.66;;;18.76;59.37
80410;BME280;69746;45.596;10.154;2023-05-10T03:02:12;99110.66;;;18.76;59.18
80410;BME280;69746;45.596;10.154;2023-05-10T03:04:39;99112.59;;;18.75;60.24
80410;BME280;69746;45.596;10.154;2023-05-10T03:07:04;99117.00;;;18.76;60.66
80410;BME280;69746;45.596;10.154;2023-05-10T03:09:31;99109.28;;;18.73;59.62
80410;BME280;69746;45.596;10.154;2023-05-10T03:12:07;99109.84;;;18.75;60.25
80410;BME280;69746;45.596;10.154;2023-05-10T03:17:29;99113.94;;;18.78;60.80
80410;BME280;69746;45.596;10.154;2023-05-10T03:19:58;99115.34;;;18.75;60.25
80410;BME280;69746;45.596;10.154;2023-05-10T03:22:38;99108.41;;;18.78;60.37
80410;BME280;69746;45.596;10.154;2023-05-10T03:25:07;99097.94;;;18.75;60.68
80410;BME280;69746;45.596;10.154;2023-05-10T03:27:39;99097.34;;;18.78;60.22
80410;BME280;69746;45.596;10.154;2023-05-10T03:30:08;99094.06;;;18.76;59.99
80410;BME280;69746;45.596;10.154;2023-05-10T03:32:36;99087.19;;;18.73;59.58
80410;BME280;69746;45.596;10.154;2023-05-10T03:35:08;99083.31;;;18.74;60.42
80410;BME280;69746;45.596;10.154;2023-05-10T03:37:34;99090.50;;;18.75;59.42
80410;BME280;69746;45.596;10.154;2023-05-10T03:40:00;99093.03;;;18.72;59.59
80410;BME280;69746;45.596;10.154;2023-05-10T03:42:26;99080.66;;;18.69;59.94
80410;BME280;69746;45.596;10.154;2023-05-10T03:44:52;99087.81;;;18.70;60.59
80410;BME280;69746;45.596;10.154;2023-05-10T03:47:18;99080.66;;;18.69;60.36
80410;BME280;69746;45.596;10.154;2023-05-10T03:49:44;99087.91;;;18.65;60.09
80410;BME280;69746;45.596;10.154;2023-05-10T03:52:09;99082.13;;;18.62;60.34
80410;BME280;69746;45.596;10.154;2023-05-10T03:54:35;99074.97;;;18.61;61.08
80410;BME280;69746;45.596;10.154;2023-05-10T03:57:01;99073.34;;;18.60;60.29
80410;BME280;69746;45.596;10.154;2023-05-10T03:59:28;99074.47;;;18.58;60.18
80410;BME280;69746;45.596;10.154;2023-05-10T04:01:57;99069.25;;;18.57;59.65
80410;BME280;69746;45.596;10.154;2023-05-10T04:04:23;99077.84;;;18.55;60.05
80410;BME280;69746;45.596;10.154;2023-05-10T04:06:49;99076.72;;;18.56;60.78
80410;BME280;69746;45.596;10.154;2023-05-10T04:09:15;99067.59;;;18.56;60.31
80410;BME280;69746;45.596;10.154;2023-05-10T04:11:43;99060.97;;;18.57;60.38
80410;BME280;69746;45.596;10.154;2023-05-10T04:14:09;99065.56;;;18.62;60.55
80410;BME280;69746;45.596;10.154;2023-05-10T04:16:35;99069.16;;;18.62;60.57
80410;BME280;69746;45.596;10.154;2023-05-10T04:19:01;99066.41;;;18.62;61.00
80410;BME280;69746;45.596;10.154;2023-05-10T04:21:27;99068.59;;;18.65;60.10
80410;BME280;69746;45.596;10.154;2023-05-10T04:23:53;99064.69;;;18.66;60.71
80410;BME280;69746;45.596;10.154;2023-05-10T04:26:19;99068.28;;;18.67;60.47
80410;BME280;69746;45.596;10.154;2023-05-10T04:28:48;99056.09;;;18.68;60.70
80410;BME280;69746;45.596;10.154;2023-05-10T04:31:15;99060.28;;;18.65;59.77
80410;BME280;69746;45.596;10.154;2023-05-10T04:33:41;99062.75;;;18.67;60.79
80410;BME280;69746;45.596;10.154;2023-05-10T04:36:07;99061.13;;;18.66;60.86
80410;BME280;69746;45.596;10.154;2023-05-10T04:38:36;99061.63;;;18.68;60.97
80410;BME280;69746;45.596;10.154;2023-05-10T04:41:10;99069.59;;;18.69;61.52
80410;BME280;69746;45.596;10.154;2023-05-10T04:43:37;99062.44;;;18.68;61.49
80410;BME280;69746;45.596;10.154;2023-05-10T04:46:04;99073.19;;;18.70;61.58
80410;BME280;69746;45.596;10.154;2023-05-10T04:48:31;99067.66;;;18.70;61.48
80410;BME280;69746;45.596;10.154;2023-05-10T04:50:57;99059.38;;;18.70;61.43
80410;BME280;69746;45.596;10.154;2023-05-10T04:53:23;99067.16;;;18.68;61.29
80410;BME280;69746;45.596;10.154;2023-05-10T04:55:49;99064.38;;;18.68;61.56
80410;BME280;69746;45.596;10.154;2023-05-10T04:58:15;99068.47;;;18.70;61.65
80410;BME280;69746;45.596;10.154;2023-05-10T05:00:42;99069.28;;;18.71;61.35
80410;BME280;69746;45.596;10.154;2023-05-10T05:03:08;99073.50;;;18.68;61.29
80410;BME280;69746;45.596;10.154;2023-05-10T05:05:34;99066.03;;;18.69;61.43
80410;BME280;69746;45.596;10.154;2023-05-10T05:08:00;99067.16;;;18.68;61.76
80410;BME280;69746;45.596;10.154;2023-05-10T05:10:26;99082.59;;;18.69;61.79
80410;BME280;69746;45.596;10.154;2023-05-10T05:12:52;99079.53;;;18.70;61.55
80410;BME280;69746;45.596;10.154;2023-05-10T05:15:18;99078.72;;;18.70;61.58
80410;BME280;69746;45.596;10.154;2023-05-10T05:17:44;99081.47;;;18.70;61.40
80410;BME280;69746;45.596;10.154;2023-05-10T05:20:10;99090.56;;;18.70;61.25
80410;BME280;69746;45.596;10.154;2023-05-10T05:22:36;99094.47;;;18.69;61.48
80410;BME280;69746;45.596;10.154;2023-05-10T05:25:02;99096.09;;;18.70;60.85
80410;BME280;69746;45.596;10.154;2023-05-10T05:27:29;99097.53;;;18.68;61.21
80410;BME280;69746;45.596;10.154;2023-05-10T05:29:56;99098.66;;;18.67;61.34
80410;BME280;69746;45.596;10.154;2023-05-10T05:32:23;99102.44;;;18.84;62.56
80410;BME280;69746;45.596;10.154;2023-05-10T05:34:51;99105.13;;;19.03;63.39
80410;BME280;69746;45.596;10.154;2023-05-10T05:37:18;99111.47;;;19.18;63.26
80410;BME280;69746;45.596;10.154;2023-05-10T05:39:47;99109.53;;;19.32;63.52
80410;BME280;69746;45.596;10.154;2023-05-10T05:42:14;99117.63;;;19.42;62.85
80410;BME280;69746;45.596;10.154;2023-05-10T05:44:42;99117.38;;;19.52;62.96
80410;BME280;69746;45.596;10.154;2023-05-10T05:47:08;99121.09;;;19.61;62.87
80410;BME280;69746;45.596;10.154;2023-05-10T05:49:34;99119.53;;;19.69;62.69
80410;BME280;69746;45.596;10.154;2023-05-10T05:52:04;99119.09;;;19.76;62.52
80410;BME280;69746;45.596;10.154;2023-05-10T05:54:31;99132.53;;;19.82;62.61
80410;BME280;69746;45.596;10.154;2023-05-10T05:56:58;99129.63;;;19.87;62.40
80410;BME280;69746;45.596;10.154;2023-05-10T05:59:24;99129.22;;;19.94;62.37
80410;BME280;69746;45.596;10.154;2023-05-10T06:01:51;99133.28;;;19.96;62.14
80410;BME280;69746;45.596;10.154;2023-05-10T06:04:17;99139.53;;;20.02;62.26
80410;BME280;69746;45.596;10.154;2023-05-10T06:06:43;99145.78;;;20.08;62.11
80410;BME280;69746;45.596;10.154;2023-05-10T06:09:10;99132.13;;;20.11;61.94
80410;BME280;69746;45.596;10.154;2023-05-10T06:11:36;99145.00;;;20.16;62.09
80410;BME280;69746;45.596;10.154;2023-05-10T06:14:06;99145.72;;;20.21;62.14
80410;BME280;69746;45.596;10.154;2023-05-10T06:16:34;99141.50;;;20.24;61.91
80410;BME280;69746;45.596;10.154;2023-05-10T06:19:01;99146.09;;;20.28;61.86
80410;BME280;69746;45.596;10.154;2023-05-10T06:21:27;99142.72;;;20.31;61.81
80410;BME280;69746;45.596;10.154;2023-05-10T06:23:53;99146.78;;;20.34;61.68
80410;BME280;69746;45.596;10.154;2023-05-10T06:26:20;99141.44;;;20.38;61.66
80410;BME280;69746;45.596;10.154;2023-05-10T06:28:46;99143.56;;;20.41;61.49
80410;BME280;69746;45.596;10.154;2023-05-10T06:31:12;99144.91;;;20.43;61.71
80410;BME280;69746;45.596;10.154;2023-05-10T06:33:38;99136.81;;;20.47;61.60
80410;BME280;69746;45.596;10.154;2023-05-10T06:36:04;99143.66;;;20.49;61.42
80410;BME280;69746;45.596;10.154;2023-05-10T06:38:31;99146.13;;;20.51;61.55
80410;BME280;69746;45.596;10.154;2023-05-10T06:40:57;99140.75;;;20.54;61.41
80410;BME280;69746;45.596;10.154;2023-05-10T06:43:24;99138.47;;;20.56;61.48
80410;BME280;69746;45.596;10.154;2023-05-10T06:45:51;99140.97;;;20.58;61.39
80410;BME280;69746;45.596;10.154;2023-05-10T06:48:17;99140.31;;;20.61;61.32
80410;BME280;69746;45.596;10.154;2023-05-10T06:50:43;99146.38;;;20.63;61.49
80410;BME280;69746;45.596;10.154;2023-05-10T06:53:17;99145.72;;;20.66;61.07
80410;BME280;69746;45.596;10.154;2023-05-10T06:55:43;99138.22;;;20.67;61.30
80410;BME280;69746;45.596;10.154;2023-05-10T06:58:09;99138.22;;;20.67;61.01
80410;BME280;69746;45.596;10.154;2023-05-10T07:00:36;99132.03;;;20.70;61.16
80410;BME280;69746;45.596;10.154;2023-05-10T07:03:09;99143.66;;;20.72;61.31
80410;BME280;69746;45.596;10.154;2023-05-10T07:05:35;99141.38;;;20.74;61.05
80410;BME280;69746;45.596;10.154;2023-05-10T07:08:00;99141.06;;;20.75;60.99
80410;BME280;69746;45.596;10.154;2023-05-10T07:10:27;99142.69;;;20.76;61.04
80410;BME280;69746;45.596;10.154;2023-05-10T07:12:53;99145.97;;;20.78;61.18
80410;BME280;69746;45.596;10.154;2023-05-10T07:15:19;99143.19;;;20.78;60.96
80410;BME280;69746;45.596;10.154;2023-05-10T07:17:45;99147.28;;;20.81;61.11
80410;BME280;69746;45.596;10.154;2023-05-10T07:20:12;99139.78;;;20.81;60.89
80410;BME280;69746;45.596;10.154;2023-05-10T07:22:41;99157.75;;;20.84;61.00
80410;BME280;69746;45.596;10.154;2023-05-10T07:25:08;99156.94;;;20.83;60.89
80410;BME280;69746;45.596;10.154;2023-05-10T07:27:34;99151.88;;;20.85;61.19
80410;BME280;69746;45.596;10.154;2023-05-10T07:30:00;99154.31;;;20.87;60.92
80410;BME280;69746;45.596;10.154;2023-05-10T07:32:27;99165.91;;;20.89;60.89
80410;BME280;69746;45.596;10.154;2023-05-10T07:34:53;99163.97;;;20.89;61.00
80410;BME280;69746;45.596;10.154;2023-05-10T07:37:19;99157.28;;;20.90;60.88
80410;BME280;69746;45.596;10.154;2023-05-10T07:39:44;99160.53;;;20.92;60.95
80410;BME280;69746;45.596;10.154;2023-05-10T07:42:11;99158.91;;;20.91;60.76
80410;BME280;69746;45.596;10.154;2023-05-10T07:44:37;99163.00;;;20.94;61.05
80410;BME280;69746;45.596;10.154;2023-05-10T07:47:02;99166.59;;;20.95;60.86
80410;BME280;69746;45.596;10.154;2023-05-10T07:49:28;99166.25;;;20.96;60.87
80410;BME280;69746;45.596;10.154;2023-05-10T07:51:54;99163.50;;;20.96;60.89
80410;BME280;69746;45.596;10.154;2023-05-10T07:54:20;99175.44;;;20.97;60.90
80410;BME280;69746;45.596;10.154;2023-05-10T07:56:47;99176.25;;;20.97;60.96
80410;BME280;69746;45.596;10.154;2023-05-10T07:59:16;99176.75;;;20.99;60.91
80410;BME280;69746;45.596;10.154;2023-05-10T08:01:42;99171.19;;;20.99;60.93
80410;BME280;69746;45.596;10.154;2023-05-10T08:04:09;99179.19;;;21.01;60.85
80410;BME280;69746;45.596;10.154;2023-05-10T08:06:35;99173.31;;;21.02;60.76
80410;BME280;69746;45.596;10.154;2023-05-10T08:09:01;99177.22;;;21.01;61.03
80410;BME280;69746;45.596;10.154;2023-05-10T08:11:27;99178.06;;;21.02;60.82
80410;BME280;69746;45.596;10.154;2023-05-10T08:13:53;99186.03;;;21.03;61.07
80410;BME280;69746;45.596;10.154;2023-05-10T08:16:20;99178.06;;;21.02;60.93
80410;BME280;69746;45.596;10.154;2023-05-10T08:18:47;99182.13;;;21.04;60.89
80410;BME280;69746;45.596;10.154;2023-05-10T08:21:16;99176.25;;;21.06;61.02
80410;BME280;69746;45.596;10.154;2023-05-10T08:23:42;99185.72;;;21.05;60.93
80410;BME280;69746;45.596;10.154;2023-05-10T08:26:09;99179.84;;;21.06;61.03
80410;BME280;69746;45.596;10.154;2023-05-10T08:28:36;99185.06;;;21.08;60.90
80410;BME280;69746;45.596;10.154;2023-05-10T08:31:05;99191.44;;;21.08;60.95
80410;BME280;69746;45.596;10.154;2023-05-10T08:33:31;99178.72;;;21.07;60.95
80410;BME280;69746;45.596;10.154;2023-05-10T08:35:57;99182.84;;;21.10;60.86
80410;BME280;69746;45.596;10.154;2023-05-10T08:38:23;99181.16;;;21.09;60.90
80410;BME280;69746;45.596;10.154;2023-05-10T08:40:54;99181.97;;;21.09;60.80
80410;BME280;69746;45.596;10.154;2023-05-10T08:43:27;99180.88;;;21.10;60.83
80410;BME280;69746;45.596;10.154;2023-05-10T08:45:55;99183.31;;;21.12;60.90
80410;BME280;69746;45.596;10.154;2023-05-10T08:48:24;99184.16;;;21.12;60.81
80410;BME280;69746;45.596;10.154;2023-05-10T08:50:52;99184.16;;;21.12;60.74
80410;BME280;69746;45.596;10.154;2023-05-10T08:53:21;99183.31;;;21.12;60.96
80410;BME280;69746;45.596;10.154;2023-05-10T08:55:51;99190.50;;;21.13;60.78
80410;BME280;69746;45.596;10.154;2023-05-10T08:58:17;99181.38;;;21.12;61.09
80410;BME280;69746;45.596;10.154;2023-05-10T09:00:46;99182.69;;;21.15;61.03
80410;BME280;69746;45.596;10.154;2023-05-10T09:03:12;99192.97;;;21.14;60.93
80410;BME280;69746;45.596;10.154;2023-05-10T09:05:38;99182.69;;;21.15;60.99
80410;BME280;69746;45.596;10.154;2023-05-10T09:08:15;99184.31;;;21.16;60.97
80410;BME280;69746;45.596;10.154;2023-05-10T09:10:43;99180.72;;;21.15;61.19
80410;BME280;69746;45.596;10.154;2023-05-10T09:13:13;99190.69;;;21.16;61.01
80410;BME280;69746;45.596;10.154;2023-05-10T09:15:40;99188.72;;;21.17;61.23
80410;BME280;69746;45.596;10.154;2023-05-10T09:18:06;99187.59;;;21.18;61.06
80410;BME280;69746;45.596;10.154;2023-05-10T09:20:32;99188.72;;;21.17;60.87
80410;BME280;69746;45.596;10.154;2023-05-10T09:22:58;99186.44;;;21.19;60.88
80410;BME280;69746;45.596;10.154;2023-05-10T09:25:24;99192.00;;;21.19;61.10
80410;BME280;69746;45.596;10.154;2023-05-10T09:27:50;99179.25;;;21.18;61.02
80410;BME280;69746;45.596;10.154;2023-05-10T09:30:27;99176.16;;;21.19;60.81
80410;BME280;69746;45.596;10.154;2023-05-10T09:32:54;99172.56;;;21.19;61.14
80410;BME280;69746;45.596;10.154;2023-05-10T09:35:23;99174.22;;;21.20;60.90
80410;BME280;69746;45.596;10.154;2023-05-10T09:37:54;99162.28;;;21.19;60.95
80410;BME280;69746;45.596;10.154;2023-05-10T09:40:22;99170.28;;;21.21;61.02
80410;BME280;69746;45.596;10.154;2023-05-10T09:42:53;99168.34;;;21.21;61.07
80410;BME280;69746;45.596;10.154;2023-05-10T09:45:26;99171.09;;;21.21;61.23
80410;BME280;69746;45.596;10.154;2023-05-10T09:47:52;99174.69;;;21.22;61.24
80410;BME280;69746;45.596;10.154;2023-05-10T09:50:19;99171.94;;;21.22;61.28
80410;BME280;69746;45.596;10.154;2023-05-10T09:52:51;99177.47;;;21.22;61.19
80410;BME280;69746;45.596;10.154;2023-05-10T09:55:24;99172.78;;;21.23;60.96
80410;BME280;69746;45.596;10.154;2023-05-10T09:58:00;99170.00;;;21.23;61.12
80410;BME280;69746;45.596;10.154;2023-05-10T10:00:28;99174.41;;;21.24;61.15
80410;BME280;69746;45.596;10.154;2023-05-10T10:02:56;99179.13;;;21.23;61.16
80410;BME280;69746;45.596;10.154;2023-05-10T10:05:32;99178.81;;;21.25;60.96
80410;BME280;69746;45.596;10.154;2023-05-10T10:07:58;99173.59;;;21.23;61.02
80410;BME280;69746;45.596;10.154;2023-05-10T10:10:26;99181.91;;;21.23;61.02
80410;BME280;69746;45.596;10.154;2023-05-10T10:12:53;99185.22;;;21.25;61.05
80410;BME280;69746;45.596;10.154;2023-05-10T10:15:21;99181.59;;;21.25;61.06
80410;BME280;69746;45.596;10.154;2023-05-10T10:17:49;99181.59;;;21.25;61.02
80410;BME280;69746;45.596;10.154;2023-05-10T10:20:16;99183.53;;;21.24;60.83
80410;BME280;69746;45.596;10.154;2023-05-10T10:22:42;99171.34;;;21.25;61.20
80410;BME280;69746;45.596;10.154;2023-05-10T10:25:15;99177.72;;;21.26;61.18
80410;BME280;69746;45.596;10.154;2023-05-10T10:27:56;99166.59;;;21.26;60.99
80410;BME280;69746;45.596;10.154;2023-05-10T10:30:45;99165.47;;;21.27;61.03
80410;BME280;69746;45.596;10.154;2023-05-10T10:36:13;99174.59;;;21.27;61.06
80410;BME280;69746;45.596;10.154;2023-05-10T10:38:55;99173.78;;;21.27;61.24
80410;BME280;69746;45.596;10.154;2023-05-10T10:41:32;99178.53;;;21.26;61.40
80410;BME280;69746;45.596;10.154;2023-05-10T10:49:43;99165.16;;;21.28;61.18
80410;BME280;69746;45.596;10.154;2023-05-10T10:52:23;99172.66;;;21.28;61.19
80410;BME280;69746;45.596;10.154;2023-05-10T10:55:01;99165.16;;;21.28;61.20
80410;BME280;69746;45.596;10.154;2023-05-10T10:57:31;99158.78;;;21.28;61.16
80410;BME280;69746;45.596;10.154;2023-05-10T11:00:21;99159.28;;;21.30;61.22
80410;BME280;69746;45.596;10.154;2023-05-10T11:02:51;99161.56;;;21.28;61.06
80410;BME280;69746;45.596;10.154;2023-05-10T11:05:34;99160.41;;;21.29;61.26
80410;BME280;69746;45.596;10.154;2023-05-10T11:08:08;99158.47;;;21.29;61.14
80410;BME280;69746;45.596;10.154;2023-05-10T11:10:35;99163.19;;;21.29;61.09
80410;BME280;69746;45.596;10.154;2023-05-10T11:13:05;99168.41;;;21.30;61.20
80410;BME280;69746;45.596;10.154;2023-05-10T11:15:34;99157.63;;;21.29;61.07
80410;BME280;69746;45.596;10.154;2023-05-10T11:18:17;99152.91;;;21.29;61.25
80410;BME280;69746;45.596;10.154;2023-05-10T11:20:45;99158.47;;;21.29;61.19
80410;BME280;69746;45.596;10.154;2023-05-10T11:23:15;99155.69;;;21.29;61.40
80410;BME280;69746;45.596;10.154;2023-05-10T11:25:43;99149.00;;;21.30;61.27
80410;BME280;69746;45.596;10.154;2023-05-10T11:28:11;99152.09;;;21.29;61.28
80410;BME280;69746;45.596;10.154;2023-05-10T11:30:39;99147.34;;;21.29;61.19
80410;BME280;69746;45.596;10.154;2023-05-10T11:33:08;99148.19;;;21.30;61.12
80410;BME280;69746;45.596;10.154;2023-05-10T11:35:38;99157.31;;;21.30;61.32
80410;BME280;69746;45.596;10.154;2023-05-10T11:38:07;99144.59;;;21.29;61.24
80410;BME280;69746;45.596;10.154;2023-05-10T11:40:34;99149.81;;;21.31;61.41
80410;BME280;69746;45.596;10.154;2023-05-10T11:43:04;99149.00;;;21.30;61.22
80410;BME280;69746;45.596;10.154;2023-05-10T11:45:33;99145.72;;;21.28;61.15
80410;BME280;69746;45.596;10.154;2023-05-10T11:47:59;99144.25;;;21.31;61.36
80410;BME280;69746;45.596;10.154;2023-05-10T11:50:26;99147.03;;;21.31;61.31
80410;BME280;69746;45.596;10.154;2023-05-10T11:52:53;99153.41;;;21.31;61.16
80410;BME280;69746;45.596;10.154;2023-05-10T11:55:23;99150.63;;;21.31;61.14
80410;BME280;69746;45.596;10.154;2023-05-10T11:57:52;99158.94;;;21.31;61.31
80410;BME280;69746;45.596;10.154;2023-05-10T12:00:18;99150.63;;;21.31;61.27
80410;BME280;69746;45.596;10.154;2023-05-10T12:02:46;99163.34;;;21.32;61.21
80410;BME280;69746;45.596;10.154;2023-05-10T12:05:13;99161.41;;;21.33;61.27
80410;BME280;69746;45.596;10.154;2023-05-10T12:07:40;99162.22;;;21.33;61.30
80410;BME280;69746;45.596;10.154;2023-05-10T12:10:12;99157.81;;;21.32;61.12
80410;BME280;69746;45.596;10.154;2023-05-10T12:12:43;99155.84;;;21.33;61.14
80410;BME280;69746;45.596;10.154;2023-05-10T12:15:21;99162.22;;;21.33;61.24
80410;BME280;69746;45.596;10.154;2023-05-10T12:17:49;99153.06;;;21.33;61.24
80410;BME280;69746;45.596;10.154;2023-05-10T12:20:18;99149.16;;;21.34;61.45
80410;BME280;69746;45.596;10.154;2023-05-10T12:22:47;99158.13;;;21.31;61.29
80410;BME280;69746;45.596;10.154;2023-05-10T12:25:16;99153.88;;;21.33;61.17
80410;BME280;69746;45.596;10.154;2023-05-10T12:27:52;99149.97;;;21.34;61.29
80410;BME280;69746;45.596;10.154;2023-05-10T12:30:24;99153.06;;;21.33;61.39
80410;BME280;69746;45.596;10.154;2023-05-10T12:32:52;99158.63;;;21.33;61.27
80410;BME280;69746;45.596;10.154;2023-05-10T12:35:18;99151.13;;;21.33;61.18
80410;BME280;69746;45.596;10.154;2023-05-10T12:37:47;99153.88;;;21.33;61.28
80410;BME280;69746;45.596;10.154;2023-05-10T12:40:14;99161.06;;;21.34;61.16
80410;BME280;69746;45.596;10.154;2023-05-10T12:42:40;99154.72;;;21.34;61.33
80410;BME280;69746;45.596;10.154;2023-05-10T12:45:08;99161.06;;;21.34;61.29
80410;BME280;69746;45.596;10.154;2023-05-10T12:47:34;99153.88;;;21.33;61.10
80410;BME280;69746;45.596;10.154;2023-05-10T12:50:01;99166.63;;;21.34;61.19
80410;BME280;69746;45.596;10.154;2023-05-10T12:52:28;99162.22;;;21.33;61.28
80410;BME280;69746;45.596;10.154;2023-05-10T12:54:54;99159.44;;;21.33;61.07
80410;BME280;69746;45.596;10.154;2023-05-10T12:57:20;99165.81;;;21.34;61.22
80410;BME280;69746;45.596;10.154;2023-05-10T12:59:47;99163.84;;;21.34;61.13
80410;BME280;69746;45.596;10.154;2023-05-10T13:02:13;99163.84;;;21.34;61.20
80410;BME280;69746;45.596;10.154;2023-05-10T13:04:40;99162.53;;;21.32;61.00
80410;BME280;69746;45.596;10.154;2023-05-10T13:07:07;99168.25;;;21.35;61.28
80410;BME280;69746;45.596;10.154;2023-05-10T13:09:34;99165.47;;;21.35;61.07
80410;BME280;69746;45.596;10.154;2023-05-10T13:12:01;99169.41;;;21.34;61.11
80410;BME280;69746;45.596;10.154;2023-05-10T13:14:29;99159.13;;;21.35;61.11
80410;BME280;69746;45.596;10.154;2023-05-10T13:16:55;99161.06;;;21.34;61.20